sensor_id;sensor_type;location;lat;lon;timestamp;temperature;humidity
58983;DHT22;44771;49.982;8.560;2022-07-23T00:02:00;21.00;99.90
58983;DHT22;44771;49.982;8.560;2022-07-23T00:07:02;21.00;99.90
58983;DHT22;44771;49.982;8.560;2022-07-23T00:12:06;20.90;99.90
58983;DHT22;44771;49.982;8.560;2022-07-23T00:17:08;20.80;99.90
58983;DHT22;44771;49.982;8.560;2022-07-23T00:22:09;20.70;99.90
58983;DHT22;44771;49.982;8.560;2022-07-23T00:27:13;20.60;99.90
58983;DHT22;44771;49.982;8.560;2022-07-23T00:32:15;20.50;99.90
58983;DHT22;44771;49.982;8.560;2022-07-23T00:37:37;20.60;99.90
58983;DHT22;44771;49.982;8.560;2022-07-23T00:49:01;20.40;99.90
58983;DHT22;44771;49.982;8.560;2022-07-23T00:54:33;20.30;99.90
58983;DHT22;44771;49.982;8.560;2022-07-23T00:59:50;20.20;99.90
58983;DHT22;44771;49.982;8.560;2022-07-23T01:04:53;20.10;99.90
58983;DHT22;44771;49.982;8.560;2022-07-23T01:09:56;20.10;99.90
58983;DHT22;44771;49.982;8.560;2022-07-23T01:14:59;20.00;99.90
58983;DHT22;44771;49.982;8.560;2022-07-23T01:20:04;20.00;99.90
58983;DHT22;44771;49.982;8.560;2022-07-23T01:25:08;20.00;99.90
58983;DHT22;44771;49.982;8.560;2022-07-23T01:30:10;20.00;99.90
58983;DHT22;44771;49.982;8.560;2022-07-23T01:35:12;19.80;99.90
58983;DHT22;44771;49.982;8.560;2022-07-23T01:40:16;19.20;99.90
58983;DHT22;44771;49.982;8.560;2022-07-23T01:45:19;18.80;99.90
58983;DHT22;44771;49.982;8.560;2022-07-23T01:50:21;18.50;99.90
58983;DHT22;44771;49.982;8.560;2022-07-23T01:55:25;18.50;99.90
58983;DHT22;44771;49.982;8.560;2022-07-23T02:00:26;18.50;99.90
58983;DHT22;44771;49.982;8.560;2022-07-23T02:05:29;18.30;99.90
58983;DHT22;44771;49.982;8.560;2022-07-23T02:10:32;18.50;99.90
58983;DHT22;44771;49.982;8.560;2022-07-23T02:15:34;18.60;99.90
58983;DHT22;44771;49.982;8.560;2022-07-23T02:20:36;18.40;99.90
58983;DHT22;44771;49.982;8.560;2022-07-23T02:25:40;18.40;99.90
58983;DHT22;44771;49.982;8.560;2022-07-23T02:30:42;18.30;99.90
58983;DHT22;44771;49.982;8.560;2022-07-23T02:36:25;18.10;99.90
58983;DHT22;44771;49.982;8.560;2022-07-23T02:42:00;18.00;99.90
58983;DHT22;44771;49.982;8.560;2022-07-23T02:47:02;18.00;99.90
58983;DHT22;44771;49.982;8.560;2022-07-23T02:52:40;18.00;99.90
58983;DHT22;44771;49.982;8.560;2022-07-23T02:58:02;18.00;99.90
58983;DHT22;44771;49.982;8.560;2022-07-23T03:03:04;18.10;99.90
58983;DHT22;44771;49.982;8.560;2022-07-23T03:08:06;18.10;99.90
58983;DHT22;44771;49.982;8.560;2022-07-23T03:13:09;18.00;99.90
58983;DHT22;44771;49.982;8.560;2022-07-23T03:24:13;18.10;99.90
58983;DHT22;44771;49.982;8.560;2022-07-23T03:29:16;18.00;99.90
58983;DHT22;44771;49.982;8.560;2022-07-23T03:34:18;17.90;99.90
58983;DHT22;44771;49.982;8.560;2022-07-23T03:39:20;17.80;99.90
58983;DHT22;44771;49.982;8.560;2022-07-23T03:44:23;17.70;99.90
58983;DHT22;44771;49.982;8.560;2022-07-23T03:49:25;17.60;99.90
58983;DHT22;44771;49.982;8.560;2022-07-23T03:54:27;17.60;99.90
58983;DHT22;44771;49.982;8.560;2022-07-23T04:05:19;17.70;99.90
58983;DHT22;44771;49.982;8.560;2022-07-23T04:10:21;17.60;99.90
58983;DHT22;44771;49.982;8.560;2022-07-23T04:15:32;17.60;99.90
58983;DHT22;44771;49.982;8.560;2022-07-23T04:20:35;17.90;99.90
58983;DHT22;44771;49.982;8.560;2022-07-23T04:25:42;17.80;99.90
58983;DHT22;44771;49.982;8.560;2022-07-23T04:30:44;18.10;99.90
58983;DHT22;44771;49.982;8.560;2022-07-23T04:35:47;18.00;99.90
58983;DHT22;44771;49.982;8.560;2022-07-23T04:40:49;18.10;99.90
58983;DHT22;44771;49.982;8.560;2022-07-23T04:45:51;18.10;99.90
58983;DHT22;44771;49.982;8.560;2022-07-23T04:50:55;18.20;99.90
58983;DHT22;44771;49.982;8.560;2022-07-23T04:55:57;18.30;99.90
58983;DHT22;44771;49.982;8.560;2022-07-23T05:00:59;18.40;99.90
58983;DHT22;44771;49.982;8.560;2022-07-23T05:06:02;18.40;99.90
58983;DHT22;44771;49.982;8.560;2022-07-23T05:11:04;18.40;99.90
58983;DHT22;44771;49.982;8.560;2022-07-23T05:16:06;18.50;99.90
58983;DHT22;44771;49.982;8.560;2022-07-23T05:21:10;18.50;99.90
58983;DHT22;44771;49.982;8.560;2022-07-23T05:26:12;18.50;99.90
58983;DHT22;44771;49.982;8.560;2022-07-23T05:31:14;18.50;99.90
58983;DHT22;44771;49.982;8.560;2022-07-23T05:36:17;18.50;99.90
58983;DHT22;44771;49.982;8.560;2022-07-23T05:41:36;18.60;99.90
58983;DHT22;44771;49.982;8.560;2022-07-23T05:46:39;18.70;99.90
58983;DHT22;44771;49.982;8.560;2022-07-23T05:51:42;18.80;99.90
58983;DHT22;44771;49.982;8.560;2022-07-23T05:56:47;18.90;99.90
58983;DHT22;44771;49.982;8.560;2022-07-23T06:01:49;18.80;99.90
58983;DHT22;44771;49.982;8.560;2022-07-23T06:06:52;18.70;99.90
58983;DHT22;44771;49.982;8.560;2022-07-23T06:11:54;18.70;99.90
58983;DHT22;44771;49.982;8.560;2022-07-23T06:16:56;18.90;99.90
58983;DHT22;44771;49.982;8.560;2022-07-23T06:21:59;19.00;99.90
58983;DHT22;44771;49.982;8.560;2022-07-23T06:27:01;19.10;99.90
58983;DHT22;44771;49.982;8.560;2022-07-23T06:32:03;19.20;99.90
58983;DHT22;44771;49.982;8.560;2022-07-23T06:37:06;19.30;99.90
58983;DHT22;44771;49.982;8.560;2022-07-23T06:42:08;19.40;99.90
58983;DHT22;44771;49.982;8.560;2022-07-23T06:47:10;19.50;99.90
58983;DHT22;44771;49.982;8.560;2022-07-23T06:52:13;19.70;99.90
58983;DHT22;44771;49.982;8.560;2022-07-23T06:57:15;19.90;99.90
58983;DHT22;44771;49.982;8.560;2022-07-23T07:02:17;20.20;99.90
58983;DHT22;44771;49.982;8.560;2022-07-23T07:07:20;20.40;99.90
58983;DHT22;44771;49.982;8.560;2022-07-23T07:12:22;20.50;99.90
58983;DHT22;44771;49.982;8.560;2022-07-23T07:17:24;20.60;99.90
58983;DHT22;44771;49.982;8.560;2022-07-23T07:22:27;20.80;99.90
58983;DHT22;44771;49.982;8.560;2022-07-23T07:27:29;20.90;99.90
58983;DHT22;44771;49.982;8.560;2022-07-23T07:32:31;20.90;99.90
58983;DHT22;44771;49.982;8.560;2022-07-23T07:37:54;20.80;99.90
58983;DHT22;44771;49.982;8.560;2022-07-23T07:42:56;20.80;99.90
58983;DHT22;44771;49.982;8.560;2022-07-23T07:47:58;21.20;99.90
58983;DHT22;44771;49.982;8.560;2022-07-23T07:53:01;21.50;99.90
58983;DHT22;44771;49.982;8.560;2022-07-23T07:58:03;22.00;99.90
58983;DHT22;44771;49.982;8.560;2022-07-23T08:03:05;22.20;99.90
58983;DHT22;44771;49.982;8.560;2022-07-23T08:08:08;22.50;99.90
58983;DHT22;44771;49.982;8.560;2022-07-23T08:13:13;22.50;99.80
58983;DHT22;44771;49.982;8.560;2022-07-23T08:18:15;22.30;99.90
58983;DHT22;44771;49.982;8.560;2022-07-23T08:23:18;22.20;99.90
58983;DHT22;44771;49.982;8.560;2022-07-23T08:28:20;22.30;99.90
58983;DHT22;44771;49.982;8.560;2022-07-23T08:33:22;22.70;99.90
58983;DHT22;44771;49.982;8.560;2022-07-23T08:38:36;23.40;98.70
58983;DHT22;44771;49.982;8.560;2022-07-23T08:43:38;23.70;97.60
58983;DHT22;44771;49.982;8.560;2022-07-23T08:48:42;23.90;95.90
58983;DHT22;44771;49.982;8.560;2022-07-23T08:53:46;24.00;97.40
58983;DHT22;44771;49.982;8.560;2022-07-23T08:58:49;24.40;94.90
58983;DHT22;44771;49.982;8.560;2022-07-23T09:03:51;24.80;94.30
58983;DHT22;44771;49.982;8.560;2022-07-23T09:08:54;24.80;94.10
58983;DHT22;44771;49.982;8.560;2022-07-23T09:13:56;25.10;90.20
58983;DHT22;44771;49.982;8.560;2022-07-23T09:18:59;25.30;87.90
58983;DHT22;44771;49.982;8.560;2022-07-23T09:34:38;26.10;83.60
58983;DHT22;44771;49.982;8.560;2022-07-23T09:39:40;26.20;83.70
58983;DHT22;44771;49.982;8.560;2022-07-23T09:44:43;26.50;78.90
58983;DHT22;44771;49.982;8.560;2022-07-23T09:50:00;26.70;80.30
58983;DHT22;44771;49.982;8.560;2022-07-23T09:55:08;26.90;79.80
58983;DHT22;44771;49.982;8.560;2022-07-23T10:00:11;27.10;74.50
58983;DHT22;44771;49.982;8.560;2022-07-23T10:05:15;26.50;75.00
58983;DHT22;44771;49.982;8.560;2022-07-23T10:10:18;26.20;78.20
58983;DHT22;44771;49.982;8.560;2022-07-23T10:15:21;26.80;77.30
58983;DHT22;44771;49.982;8.560;2022-07-23T10:20:25;26.50;78.50
58983;DHT22;44771;49.982;8.560;2022-07-23T10:25:34;26.40;79.00
58983;DHT22;44771;49.982;8.560;2022-07-23T10:30:43;27.40;76.00
58983;DHT22;44771;49.982;8.560;2022-07-23T10:35:53;27.50;72.10
58983;DHT22;44771;49.982;8.560;2022-07-23T10:40:59;26.80;72.30
58983;DHT22;44771;49.982;8.560;2022-07-23T10:46:36;26.30;75.40
58983;DHT22;44771;49.982;8.560;2022-07-23T10:52:21;26.90;73.20
58983;DHT22;44771;49.982;8.560;2022-07-23T10:57:25;27.40;72.40
58983;DHT22;44771;49.982;8.560;2022-07-23T11:02:29;27.10;72.80
58983;DHT22;44771;49.982;8.560;2022-07-23T11:07:33;26.50;72.10
58983;DHT22;44771;49.982;8.560;2022-07-23T11:12:35;26.10;74.00
58983;DHT22;44771;49.982;8.560;2022-07-23T11:17:40;26.50;76.50
58983;DHT22;44771;49.982;8.560;2022-07-23T11:23:00;26.90;71.40
58983;DHT22;44771;49.982;8.560;2022-07-23T11:39:46;26.00;71.20
58983;DHT22;44771;49.982;8.560;2022-07-23T11:44:51;27.10;66.30
58983;DHT22;44771;49.982;8.560;2022-07-23T11:50:08;27.80;69.00
58983;DHT22;44771;49.982;8.560;2022-07-23T12:01:01;27.00;68.40
58983;DHT22;44771;49.982;8.560;2022-07-23T12:06:50;26.60;67.60
58983;DHT22;44771;49.982;8.560;2022-07-23T12:23:49;29.10;60.70
58983;DHT22;44771;49.982;8.560;2022-07-23T12:28:52;29.10;58.30
58983;DHT22;44771;49.982;8.560;2022-07-23T12:33:54;29.50;56.20
58983;DHT22;44771;49.982;8.560;2022-07-23T12:39:03;30.00;54.90
58983;DHT22;44771;49.982;8.560;2022-07-23T12:44:14;30.20;56.30
58983;DHT22;44771;49.982;8.560;2022-07-23T12:49:25;30.20;53.40
58983;DHT22;44771;49.982;8.560;2022-07-23T12:54:32;30.10;53.90
58983;DHT22;44771;49.982;8.560;2022-07-23T12:59:34;30.30;52.70
58983;DHT22;44771;49.982;8.560;2022-07-23T13:04:37;30.20;52.30
58983;DHT22;44771;49.982;8.560;2022-07-23T13:09:40;30.00;52.60
58983;DHT22;44771;49.982;8.560;2022-07-23T13:14:43;30.10;53.70
58983;DHT22;44771;49.982;8.560;2022-07-23T13:19:45;29.20;52.30
58983;DHT22;44771;49.982;8.560;2022-07-23T13:24:49;28.50;55.50
58983;DHT22;44771;49.982;8.560;2022-07-23T13:29:51;27.90;57.80
58983;DHT22;44771;49.982;8.560;2022-07-23T13:34:54;28.30;56.30
58983;DHT22;44771;49.982;8.560;2022-07-23T13:39:58;29.00;56.60
58983;DHT22;44771;49.982;8.560;2022-07-23T13:45:00;29.70;57.70
58983;DHT22;44771;49.982;8.560;2022-07-23T13:50:03;30.10;53.20
58983;DHT22;44771;49.982;8.560;2022-07-23T13:55:08;30.10;54.90
58983;DHT22;44771;49.982;8.560;2022-07-23T14:00:43;29.70;53.50
58983;DHT22;44771;49.982;8.560;2022-07-23T14:05:51;29.00;55.10
58983;DHT22;44771;49.982;8.560;2022-07-23T14:10:58;28.70;56.20
58983;DHT22;44771;49.982;8.560;2022-07-23T14:16:04;28.20;58.00
58983;DHT22;44771;49.982;8.560;2022-07-23T14:21:21;27.90;58.30
58983;DHT22;44771;49.982;8.560;2022-07-23T14:26:24;28.10;59.30
58983;DHT22;44771;49.982;8.560;2022-07-23T14:31:26;28.50;58.40
58983;DHT22;44771;49.982;8.560;2022-07-23T14:36:28;28.10;58.60
58983;DHT22;44771;49.982;8.560;2022-07-23T14:41:32;28.30;56.30
58983;DHT22;44771;49.982;8.560;2022-07-23T14:46:34;28.40;55.00
58983;DHT22;44771;49.982;8.560;2022-07-23T14:51:36;28.70;57.30
58983;DHT22;44771;49.982;8.560;2022-07-23T14:56:39;29.20;56.00
58983;DHT22;44771;49.982;8.560;2022-07-23T15:01:41;29.70;54.60
58983;DHT22;44771;49.982;8.560;2022-07-23T15:06:43;29.40;53.60
58983;DHT22;44771;49.982;8.560;2022-07-23T15:11:47;29.00;52.80
58983;DHT22;44771;49.982;8.560;2022-07-23T15:16:50;28.70;54.50
58983;DHT22;44771;49.982;8.560;2022-07-23T15:21:53;28.50;54.80
58983;DHT22;44771;49.982;8.560;2022-07-23T15:26:57;28.60;53.50
58983;DHT22;44771;49.982;8.560;2022-07-23T15:31:59;28.60;52.90
58983;DHT22;44771;49.982;8.560;2022-07-23T15:37:02;28.10;53.40
58983;DHT22;44771;49.982;8.560;2022-07-23T15:42:13;27.60;56.50
58983;DHT22;44771;49.982;8.560;2022-07-23T15:47:17;27.30;57.00
58983;DHT22;44771;49.982;8.560;2022-07-23T15:52:20;27.30;56.10
58983;DHT22;44771;49.982;8.560;2022-07-23T15:57:24;27.70;54.60
58983;DHT22;44771;49.982;8.560;2022-07-23T16:02:27;28.00;56.40
58983;DHT22;44771;49.982;8.560;2022-07-23T16:07:32;28.40;52.90
58983;DHT22;44771;49.982;8.560;2022-07-23T16:12:36;28.70;52.10
58983;DHT22;44771;49.982;8.560;2022-07-23T16:17:38;28.60;53.10
58983;DHT22;44771;49.982;8.560;2022-07-23T16:27:58;28.00;53.30
58983;DHT22;44771;49.982;8.560;2022-07-23T16:33:01;27.60;54.70
58983;DHT22;44771;49.982;8.560;2022-07-23T16:38:07;27.30;54.10
58983;DHT22;44771;49.982;8.560;2022-07-23T16:43:10;27.00;57.50
58983;DHT22;44771;49.982;8.560;2022-07-23T16:48:12;27.00;55.80
58983;DHT22;44771;49.982;8.560;2022-07-23T16:53:14;27.10;55.60
58983;DHT22;44771;49.982;8.560;2022-07-23T17:03:29;27.10;55.00
58983;DHT22;44771;49.982;8.560;2022-07-23T17:08:32;26.90;56.20
58983;DHT22;44771;49.982;8.560;2022-07-23T17:13:36;26.70;55.80
58983;DHT22;44771;49.982;8.560;2022-07-23T17:18:39;26.60;56.50
58983;DHT22;44771;49.982;8.560;2022-07-23T17:23:41;26.50;57.40
58983;DHT22;44771;49.982;8.560;2022-07-23T17:28:43;26.30;56.30
58983;DHT22;44771;49.982;8.560;2022-07-23T17:33:46;26.20;55.60
58983;DHT22;44771;49.982;8.560;2022-07-23T17:38:49;26.20;55.00
58983;DHT22;44771;49.982;8.560;2022-07-23T17:43:52;26.10;54.40
58983;DHT22;44771;49.982;8.560;2022-07-23T17:48:55;26.00;54.30
58983;DHT22;44771;49.982;8.560;2022-07-23T17:53:59;26.00;54.40
58983;DHT22;44771;49.982;8.560;2022-07-23T17:59:04;25.90;54.60
58983;DHT22;44771;49.982;8.560;2022-07-23T18:04:25;25.90;54.70
58983;DHT22;44771;49.982;8.560;2022-07-23T18:09:42;25.90;55.40
58983;DHT22;44771;49.982;8.560;2022-07-23T18:14:43;25.90;54.60
58983;DHT22;44771;49.982;8.560;2022-07-23T18:19:47;25.80;55.70
58983;DHT22;44771;49.982;8.560;2022-07-23T18:24:48;25.70;56.50
58983;DHT22;44771;49.982;8.560;2022-07-23T18:29:50;25.60;55.20
58983;DHT22;44771;49.982;8.560;2022-07-23T18:34:54;25.50;56.00
58983;DHT22;44771;49.982;8.560;2022-07-23T18:39:56;25.30;56.00
58983;DHT22;44771;49.982;8.560;2022-07-23T18:44:58;25.20;56.30
58983;DHT22;44771;49.982;8.560;2022-07-23T18:50:10;25.10;55.70
58983;DHT22;44771;49.982;8.560;2022-07-23T18:55:12;24.90;58.20
58983;DHT22;44771;49.982;8.560;2022-07-23T19:00:15;24.60;60.00
58983;DHT22;44771;49.982;8.560;2022-07-23T19:05:18;24.20;61.80
58983;DHT22;44771;49.982;8.560;2022-07-23T19:10:21;23.70;63.20
58983;DHT22;44771;49.982;8.560;2022-07-23T19:15:23;23.30;66.20
58983;DHT22;44771;49.982;8.560;2022-07-23T19:20:27;22.90;65.40
58983;DHT22;44771;49.982;8.560;2022-07-23T19:25:29;22.60;68.00
58983;DHT22;44771;49.982;8.560;2022-07-23T19:30:40;22.30;67.60
58983;DHT22;44771;49.982;8.560;2022-07-23T19:36:12;22.10;69.30
58983;DHT22;44771;49.982;8.560;2022-07-23T19:41:29;21.80;69.70
58983;DHT22;44771;49.982;8.560;2022-07-23T20:26:02;20.50;77.80
58983;DHT22;44771;49.982;8.560;2022-07-23T20:31:04;20.30;79.70
58983;DHT22;44771;49.982;8.560;2022-07-23T20:36:09;20.20;80.70
58983;DHT22;44771;49.982;8.560;2022-07-23T20:41:12;20.10;82.00
58983;DHT22;44771;49.982;8.560;2022-07-23T20:46:14;20.10;84.00
58983;DHT22;44771;49.982;8.560;2022-07-23T20:51:16;20.00;85.20
58983;DHT22;44771;49.982;8.560;2022-07-23T20:56:19;19.90;85.60
58983;DHT22;44771;49.982;8.560;2022-07-23T21:01:22;19.90;87.10
58983;DHT22;44771;49.982;8.560;2022-07-23T21:06:28;19.90;89.50
58983;DHT22;44771;49.982;8.560;2022-07-23T21:11:32;19.80;89.80
58983;DHT22;44771;49.982;8.560;2022-07-23T21:16:34;19.80;90.50
58983;DHT22;44771;49.982;8.560;2022-07-23T21:21:36;19.90;91.50
58983;DHT22;44771;49.982;8.560;2022-07-23T21:26:42;19.90;93.00
58983;DHT22;44771;49.982;8.560;2022-07-23T21:31:49;19.90;94.40
58983;DHT22;44771;49.982;8.560;2022-07-23T21:36:52;19.90;94.90
58983;DHT22;44771;49.982;8.560;2022-07-23T21:41:55;19.90;94.40
58983;DHT22;44771;49.982;8.560;2022-07-23T21:46:57;19.90;94.40
58983;DHT22;44771;49.982;8.560;2022-07-23T21:52:00;20.00;96.70
58983;DHT22;44771;49.982;8.560;2022-07-23T21:57:03;20.10;95.30
58983;DHT22;44771;49.982;8.560;2022-07-23T22:02:37;20.20;95.50
58983;DHT22;44771;49.982;8.560;2022-07-23T22:07:56;20.30;95.60
58983;DHT22;44771;49.982;8.560;2022-07-23T22:12:59;20.50;95.30
58983;DHT22;44771;49.982;8.560;2022-07-23T22:18:01;20.50;94.60
58983;DHT22;44771;49.982;8.560;2022-07-23T22:29:01;20.40;94.20
58983;DHT22;44771;49.982;8.560;2022-07-23T22:34:04;20.20;95.70
58983;DHT22;44771;49.982;8.560;2022-07-23T22:39:06;20.10;94.70
58983;DHT22;44771;49.982;8.560;2022-07-23T22:54:54;20.10;96.50
58983;DHT22;44771;49.982;8.560;2022-07-23T22:59:56;19.90;97.40
58983;DHT22;44771;49.982;8.560;2022-07-23T23:04:58;19.70;98.30
58983;DHT22;44771;49.982;8.560;2022-07-23T23:10:02;19.50;98.70
58983;DHT22;44771;49.982;8.560;2022-07-23T23:15:05;19.40;99.40
58983;DHT22;44771;49.982;8.560;2022-07-23T23:20:07;19.30;99.90
58983;DHT22;44771;49.982;8.560;2022-07-23T23:25:11;19.20;99.90
58983;DHT22;44771;49.982;8.560;2022-07-23T23:30:33;19.20;99.90
58983;DHT22;44771;49.982;8.560;2022-07-23T23:36:20;19.00;99.90
58983;DHT22;44771;49.982;8.560;2022-07-23T23:41:30;18.80;99.90
58983;DHT22;44771;49.982;8.560;2022-07-23T23:46:32;18.80;99.90
58983;DHT22;44771;49.982;8.560;2022-07-23T23:51:38;18.80;99.90
58983;DHT22;44771;49.982;8.560;2022-07-23T23:56:42;18.80;99.90
